Time;durP1;ratioP1;P1;durP2;ratioP2;P2;SDS_P1;SDS_P2;PMS_P1;PMS_P2;Temp;Humidity;BMP_temperature;BMP_pressure;BME280_temperature;BME280_humidity;BME280_pressure;Samples;Min_cycle;Max_cycle;Signal;HPM_P1;HPM_P2
2022/04/15 00:00:29;;;;;;;;;;;;;;;27.15;36.86;94652.38;4968040;28;8387;-60
2022/04/15 00:03:06;;;;;;;;;;;;;;;27.11;37.18;94652.66;4973825;28;8728;-60
2022/04/15 00:05:40;;;;;;;;;;;;;;;27.12;36.80;94653.41;4955999;28;9125;-60
2022/04/15 00:08:06;;;;;;;;;;;;;;;27.14;37.20;94657.16;4961468;28;7504;-60
2022/04/15 00:10:33;;;;;;;;;;;;;;;27.15;36.70;94657.91;4977759;28;8739;-60
2022/04/15 00:13:01;;;;;;;;;;;;;;;27.14;36.89;94668.22;4966191;28;9092;-60
2022/04/15 00:15:27;;;;;;;;;;;;;;;27.13;37.17;94672.22;4952390;28;9504;-60
2022/04/15 00:17:58;;;;;;;;;;;;;;;27.13;37.52;94669.47;4953511;28;9737;-60
2022/04/15 00:20:52;;;;;;;;;;;;;;;27.13;37.67;94671.47;4989527;28;10443;-60
2022/04/15 00:23:22;;;;;;;;;;;;;;;27.13;37.21;94660.41;4956808;28;9435;-60
2022/04/15 00:26:00;;;;;;;;;;;;;;;27.11;37.11;94652.66;4951037;28;8674;-60
2022/04/15 00:28:41;;;;;;;;;;;;;;;27.11;37.14;94649.16;4953310;28;9470;-60
2022/04/15 00:31:40;;;;;;;;;;;;;;;27.10;36.76;94644.91;4953964;28;8830;-60
2022/04/15 00:34:24;;;;;;;;;;;;;;;27.09;37.52;94648.91;4940076;28;7294;-60
2022/04/15 00:36:52;;;;;;;;;;;;;;;27.08;36.92;94645.41;4958451;28;7087;-60
2022/04/15 00:39:29;;;;;;;;;;;;;;;27.07;36.88;94643.91;4956932;28;7228;-60
2022/04/15 00:42:24;;;;;;;;;;;;;;;27.07;36.71;94635.63;4967704;28;9441;-60
2022/04/15 00:44:54;;;;;;;;;;;;;;;27.07;37.11;94635.63;4927081;29;8924;-60
2022/04/15 00:51:08;;;;;;;;;;;;;;;27.04;37.65;94641.41;4878175;29;9163;-60
2022/04/15 00:53:40;;;;;;;;;;;;;;;27.03;37.27;94640.69;4862122;29;7117;-60
2022/04/15 00:56:13;;;;;;;;;;;;;;;27.04;37.26;94633.13;4877396;29;9377;-60
2022/04/15 00:58:51;;;;;;;;;;;;;;;27.04;37.03;94636.66;4873101;29;9037;-60
2022/04/15 01:01:26;;;;;;;;;;;;;;;27.03;37.38;94640.69;4912975;29;7257;-60
2022/04/15 01:04:03;;;;;;;;;;;;;;;27.03;36.80;94648.97;4914793;29;9286;-60
2022/04/15 01:06:46;;;;;;;;;;;;;;;27.04;37.36;94639.41;4914521;29;7407;-60
2022/04/15 01:09:31;;;;;;;;;;;;;;;27.03;36.78;94643.44;4911865;29;9041;-60
2022/04/15 01:11:59;;;;;;;;;;;;;;;27.03;36.79;94639.94;4910768;29;7007;-60
2022/04/15 01:14:27;;;;;;;;;;;;;;;27.02;36.75;94643.94;4907078;29;7191;-60
2022/04/15 01:16:53;;;;;;;;;;;;;;;27.01;37.43;94640.47;4910322;29;7066;-60
2022/04/15 01:19:19;;;;;;;;;;;;;;;26.99;37.18;94639.47;4914992;29;7226;-60
2022/04/15 01:21:52;;;;;;;;;;;;;;;27.01;37.51;94645.97;4973415;28;8997;-60
2022/04/15 01:24:18;;;;;;;;;;;;;;;26.97;36.86;94648.25;4978724;28;7259;-60
2022/04/15 01:26:46;;;;;;;;;;;;;;;26.99;36.80;94642.22;5000097;28;9004;-60
2022/04/15 01:29:17;;;;;;;;;;;;;;;26.99;36.79;94639.47;5040438;28;9222;-60
2022/04/15 01:31:45;;;;;;;;;;;;;;;26.95;37.61;94642.50;5039203;28;7119;-60
2022/04/15 01:34:48;;;;;;;;;;;;;;;26.98;37.01;94641.47;5041339;28;7350;-60
2022/04/15 01:37:25;;;;;;;;;;;;;;;26.97;37.02;94642.72;4956245;28;9042;-60
2022/04/15 01:39:53;;;;;;;;;;;;;;;26.96;37.53;94646.75;4955448;28;8720;-60
2022/04/15 01:42:38;;;;;;;;;;;;;;;26.96;37.08;94646.75;4946414;28;8623;-60
2022/04/15 01:45:15;;;;;;;;;;;;;;;26.98;37.27;94649.75;4963375;28;7462;-60
2022/04/15 01:47:53;;;;;;;;;;;;;;;26.95;36.92;94648.00;4952681;28;9477;-60
2022/04/15 01:50:28;;;;;;;;;;;;;;;26.96;36.72;94648.75;4950830;28;9083;-60
2022/04/15 01:52:56;;;;;;;;;;;;;;;26.93;37.06;94647.78;4950581;28;7021;-60
2022/04/15 01:55:31;;;;;;;;;;;;;;;26.94;37.23;94643.78;4970534;28;8910;-60
2022/04/15 01:57:59;;;;;;;;;;;;;;;26.94;37.13;94638.25;4945592;28;7188;-60
2022/04/15 02:00:45;;;;;;;;;;;;;;;26.94;37.70;94643.78;4969226;28;7189;-60
2022/04/15 02:03:16;;;;;;;;;;;;;;;26.92;36.68;94641.50;4971025;28;7183;-61
2022/04/15 02:05:55;;;;;;;;;;;;;;;26.94;37.32;94643.00;4950443;28;9517;-60
2022/04/15 02:08:21;;;;;;;;;;;;;;;26.91;37.48;94644.78;4947231;28;7246;-60
2022/04/15 02:11:13;;;;;;;;;;;;;;;26.92;36.76;94644.25;4978748;28;7062;-60
2022/04/15 02:13:39;;;;;;;;;;;;;;;26.92;36.86;94651.81;4979388;28;10076;-60
2022/04/15 02:16:05;;;;;;;;;;;;;;;26.92;37.04;94653.81;4969824;28;7209;-60
2022/04/15 02:18:31;;;;;;;;;;;;;;;26.88;36.81;94649.31;4984166;28;9072;-60
2022/04/15 02:21:10;;;;;;;;;;;;;;;26.88;36.87;94648.59;4988722;28;8710;-60
2022/04/15 02:23:38;;;;;;;;;;;;;;;26.91;36.77;94661.34;4987235;28;9059;-61
2022/04/15 02:26:24;;;;;;;;;;;;;;;26.90;37.60;94652.31;4972438;28;7305;-60
2022/04/15 02:28:59;;;;;;;;;;;;;;;26.88;37.11;94656.88;4989766;28;9173;-60
2022/04/15 02:31:35;;;;;;;;;;;;;;;26.89;37.73;94652.81;4971011;28;9586;-60
2022/04/15 02:34:10;;;;;;;;;;;;;;;26.89;37.74;94666.63;4981482;28;7260;-60
2022/04/15 02:37:04;;;;;;;;;;;;;;;26.87;36.81;94656.13;4973988;28;6869;-60
2022/04/15 02:39:33;;;;;;;;;;;;;;;26.87;37.71;94660.88;4973657;28;7418;-60
2022/04/15 02:42:28;;;;;;;;;;;;;;;26.86;37.27;94665.63;4966458;28;7210;-60
2022/04/15 02:45:18;;;;;;;;;;;;;;;26.86;37.66;94664.91;4949470;28;9158;-60
2022/04/15 02:48:03;;;;;;;;;;;;;;;26.86;37.58;94670.44;4922123;29;9312;-60
2022/04/15 02:50:39;;;;;;;;;;;;;;;26.84;36.98;94665.41;4935288;29;7502;-60
2022/04/15 02:53:17;;;;;;;;;;;;;;;26.84;37.65;94668.16;4965888;28;7242;-60
2022/04/15 02:56:17;;;;;;;;;;;;;;;26.85;36.80;94663.41;4958704;28;8839;-60
2022/04/15 02:58:46;;;;;;;;;;;;;;;26.83;36.83;94665.94;4968546;28;7892;-60
2022/04/15 03:01:22;;;;;;;;;;;;;;;26.86;37.39;94664.91;4960355;28;8716;-60
2022/04/15 03:04:20;;;;;;;;;;;;;;;26.84;37.10;94672.94;4968736;28;7259;-60
2022/04/15 03:06:46;;;;;;;;;;;;;;;26.83;37.46;94665.94;4919285;29;9350;-60
2022/04/15 03:09:17;;;;;;;;;;;;;;;26.82;37.61;94665.16;4923680;28;9532;-60
2022/04/15 03:11:45;;;;;;;;;;;;;;;26.81;36.90;94660.19;4922421;29;8858;-60
2022/04/15 03:14:11;;;;;;;;;;;;;;;26.80;37.16;94658.66;4927671;29;9074;-60
2022/04/15 03:16:39;;;;;;;;;;;;;;;26.80;36.90;94662.19;4936325;29;7260;-60
2022/04/15 03:19:05;;;;;;;;;;;;;;;26.81;36.82;94657.41;4914183;29;7518;-60
2022/04/15 03:21:41;;;;;;;;;;;;;;;26.76;37.37;94650.66;4938580;28;9139;-60
2022/04/15 03:24:18;;;;;;;;;;;;;;;26.79;36.67;94654.41;4940916;28;8589;-60
2022/04/15 03:27:35;;;;;;;;;;;;;;;26.79;36.77;94651.66;4962066;28;8238;-60
2022/04/15 03:30:39;;;;;;;;;;;;;;;26.77;36.69;94649.38;4932688;29;7248;-60
2022/04/15 03:33:06;;;;;;;;;;;;;;;26.77;37.07;94648.66;4878199;29;7110;-60
2022/04/15 03:35:55;;;;;;;;;;;;;;;26.76;37.32;94647.16;4879288;29;8833;-60
2022/04/15 03:38:34;;;;;;;;;;;;;;;26.73;37.54;94639.91;4876516;29;7139;-60
2022/04/15 03:41:00;;;;;;;;;;;;;;;26.74;36.83;94649.69;4871970;29;9481;-60
2022/04/15 03:43:37;;;;;;;;;;;;;;;26.76;37.61;94649.91;4899100;29;7765;-60
2022/04/15 03:46:11;;;;;;;;;;;;;;;26.74;37.41;94650.44;4914575;29;8953;-60
2022/04/15 03:48:54;;;;;;;;;;;;;;;26.71;37.01;94654.19;4909754;29;9089;-60
2022/04/15 03:51:39;;;;;;;;;;;;;;;26.74;36.64;94661.47;4899883;29;7253;-60
2022/04/15 03:54:05;;;;;;;;;;;;;;;26.73;37.32;94667.50;4915639;29;8378;-60
2022/04/15 03:57:02;;;;;;;;;;;;;;;26.72;36.55;94660.44;4907690;29;9119;-60
2022/04/15 03:59:32;;;;;;;;;;;;;;;26.72;37.51;94666.72;4891995;29;8954;-60
2022/04/15 04:02:08;;;;;;;;;;;;;;;26.71;36.97;94665.22;4907165;29;9133;-60
2022/04/15 04:04:48;;;;;;;;;;;;;;;26.71;36.74;94670.72;4941090;28;9074;-60
2022/04/15 04:07:15;;;;;;;;;;;;;;;26.70;37.12;94665.72;4986995;28;7523;-60
2022/04/15 04:09:57;;;;;;;;;;;;;;;26.69;36.86;94673.25;5002749;28;7257;-60
2022/04/15 04:12:23;;;;;;;;;;;;;;;26.68;37.02;94674.53;4995907;28;7345;-60
2022/04/15 04:14:49;;;;;;;;;;;;;;;26.66;36.96;94673.53;4990086;28;7413;-60
2022/04/15 04:17:17;;;;;;;;;;;;;;;26.68;36.94;94671.78;5008532;28;6965;-60
2022/04/15 04:19:47;;;;;;;;;;;;;;;26.70;37.19;94674.00;5009024;28;9364;-60
2022/04/15 04:22:14;;;;;;;;;;;;;;;26.69;37.43;94684.28;4989733;28;9065;-60
2022/04/15 04:25:04;;;;;;;;;;;;;;;26.68;37.15;94688.31;5011380;28;7203;-60
2022/04/15 04:27:56;;;;;;;;;;;;;;;26.68;37.65;94684.81;4995717;28;9041;-60
2022/04/15 04:30:37;;;;;;;;;;;;;;;26.66;36.84;94692.84;4994720;28;7862;-60
2022/04/15 04:33:13;;;;;;;;;;;;;;;26.64;37.21;94692.63;5004151;28;7887;-60
2022/04/15 04:35:43;;;;;;;;;;;;;;;26.63;37.67;94697.38;5009790;28;9130;-60
2022/04/15 04:38:24;;;;;;;;;;;;;;;26.62;37.75;94700.66;5056572;28;7498;-60
2022/04/15 04:41:06;;;;;;;;;;;;;;;26.60;37.46;94695.63;5055883;28;8906;-60
2022/04/15 04:43:34;;;;;;;;;;;;;;;26.59;37.25;94696.91;5038410;28;8757;-60
2022/04/15 04:46:04;;;;;;;;;;;;;;;26.61;37.29;94693.63;5048064;28;9170;-60
2022/04/15 04:48:30;;;;;;;;;;;;;;;26.61;37.21;94704.66;5043064;28;6990;-60
2022/04/15 04:50:58;;;;;;;;;;;;;;;26.61;37.71;94699.16;5043199;28;8554;-60
2022/04/15 04:53:32;;;;;;;;;;;;;;;26.59;37.67;94698.91;5034306;28;7415;-60
2022/04/15 04:55:59;;;;;;;;;;;;;;;26.60;37.43;94697.66;5051512;28;7002;-60
2022/04/15 04:58:27;;;;;;;;;;;;;;;26.60;37.16;94703.19;5053652;28;9167;-60
2022/04/15 05:00:53;;;;;;;;;;;;;;;26.60;37.46;94697.66;5043715;28;9028;-60
2022/04/15 05:03:18;;;;;;;;;;;;;;;26.59;37.18;94707.19;5037406;28;9604;-60
2022/04/15 05:05:48;;;;;;;;;;;;;;;26.59;37.16;94707.19;5029761;28;7247;-60
2022/04/15 05:08:16;;;;;;;;;;;;;;;26.58;36.69;94706.44;5040018;28;7574;-60
2022/04/15 05:10:43;;;;;;;;;;;;;;;26.56;37.27;94708.94;5046406;28;8255;-60
2022/04/15 05:13:11;;;;;;;;;;;;;;;26.57;37.28;94706.94;5050479;28;8853;-60
2022/04/15 05:15:36;;;;;;;;;;;;;;;26.54;36.81;94705.94;5046388;28;9244;-60
2022/04/15 05:18:03;;;;;;;;;;;;;;;26.57;37.52;94709.69;5037638;28;6999;-60
2022/04/15 05:20:32;;;;;;;;;;;;;;;26.52;36.70;94702.19;5036508;28;7232;-60
2022/04/15 05:23:02;;;;;;;;;;;;;;;26.57;37.41;94713.22;5039511;28;7170;-60
2022/04/15 05:25:53;;;;;;;;;;;;;;;26.56;36.67;94717.22;5034264;28;8928;-60
2022/04/15 05:28:25;;;;;;;;;;;;;;;26.56;36.50;94708.19;5058140;28;9074;-60
2022/04/15 05:30:56;;;;;;;;;;;;;;;26.54;36.73;94724.50;5036362;28;7347;-60
2022/04/15 05:33:25;;;;;;;;;;;;;;;26.51;37.09;94720.03;5040210;28;9176;-61
2022/04/15 05:36:05;;;;;;;;;;;;;;;26.51;37.82;94725.53;5046352;28;7184;-60
2022/04/15 05:38:31;;;;;;;;;;;;;;;26.52;37.59;94729.78;5045146;28;9203;-60
2022/04/15 05:41:08;;;;;;;;;;;;;;;26.54;36.73;94727.25;5048412;28;7265;-60
2022/04/15 05:43:55;;;;;;;;;;;;;;;26.56;37.03;94724.75;5039314;28;9285;-60
2022/04/15 05:46:32;;;;;;;;;;;;;;;26.54;36.67;94728.03;5040755;28;8796;-60
2022/04/15 05:49:15;;;;;;;;;;;;;;;26.56;37.45;94733.78;5035954;28;9189;-60
2022/04/15 05:51:45;;;;;;;;;;;;;;;26.56;37.27;94736.53;5048266;28;8961;-60
2022/04/15 05:54:20;;;;;;;;;;;;;;;26.56;37.49;94742.06;5048456;28;9069;-60
2022/04/15 05:57:07;;;;;;;;;;;;;;;26.58;36.82;94744.28;5048276;28;7035;-60
2022/04/15 05:59:39;;;;;;;;;;;;;;;26.56;37.19;94749.56;5048740;28;9097;-60
2022/04/15 06:02:16;;;;;;;;;;;;;;;26.53;37.43;94729.28;5049772;28;8104;-60
2022/04/15 06:04:53;;;;;;;;;;;;;;;26.56;37.12;94744.06;5044183;28;9093;-60
2022/04/15 06:07:22;;;;;;;;;;;;;;;26.55;36.54;94748.84;5045741;28;6990;-60
2022/04/15 06:10:14;;;;;;;;;;;;;;;26.54;37.26;94749.34;5043248;28;9082;-60
2022/04/15 06:15:30;;;;;;;;;;;;;;;26.55;36.99;94759.13;4958322;28;9092;-60
2022/04/15 06:17:57;;;;;;;;;;;;;;;26.55;37.37;94757.13;4963183;28;9402;-60
2022/04/15 06:20:24;;;;;;;;;;;;;;;26.56;36.49;94758.59;4946915;28;9072;-60
2022/04/15 06:22:52;;;;;;;;;;;;;;;26.55;36.63;94757.13;4953393;28;7558;-61
2022/04/15 06:25:30;;;;;;;;;;;;;;;26.53;37.14;94754.13;4951309;28;8899;-61
2022/04/15 06:27:58;;;;;;;;;;;;;;;26.57;36.64;94760.13;4961244;28;7268;-60
2022/04/15 06:30:50;;;;;;;;;;;;;;;26.55;37.05;94756.38;4958830;28;8718;-61
2022/04/15 06:33:26;;;;;;;;;;;;;;;26.53;37.32;94753.38;4957436;28;7390;-61
2022/04/15 06:36:05;;;;;;;;;;;;;;;26.54;36.89;94757.59;4949710;28;7263;-61
2022/04/15 06:38:32;;;;;;;;;;;;;;;26.54;36.49;94766.63;4964867;28;7204;-61
2022/04/15 06:40:58;;;;;;;;;;;;;;;26.55;37.12;94770.91;4962459;28;9427;-60
2022/04/15 06:43:45;;;;;;;;;;;;;;;26.57;36.78;94767.63;4944135;28;9524;-61
2022/04/15 06:46:48;;;;;;;;;;;;;;;26.55;36.91;94775.69;4960521;28;9002;-60
2022/04/15 06:50:09;;;;;;;;;;;;;;;26.54;36.64;94771.41;4945453;28;9306;-60
2022/04/15 06:52:36;;;;;;;;;;;;;;;26.53;37.30;94767.16;4884130;29;9069;-60
2022/04/15 06:55:21;;;;;;;;;;;;;;;26.52;37.00;94762.88;4886145;29;7439;-60
2022/04/15 06:57:50;;;;;;;;;;;;;;;26.52;36.82;94765.66;4896794;29;7259;-60
2022/04/15 07:00:46;;;;;;;;;;;;;;;26.52;38.00;94768.41;4890772;29;7224;-61
2022/04/15 07:03:29;;;;;;;;;;;;;;;26.51;37.41;94773.16;4841479;29;7422;-60
2022/04/15 07:06:02;;;;;;;;;;;;;;;26.51;37.40;94775.19;4841203;29;9414;-60
2022/04/15 07:08:48;;;;;;;;;;;;;;;26.52;37.97;94776.69;4851309;29;6994;-60
2022/04/15 07:11:27;;;;;;;;;;;;;;;26.53;37.51;94778.19;4841210;29;9077;-60
2022/04/15 07:13:52;;;;;;;;;;;;;;;26.52;36.91;94779.44;4832704;29;9533;-60
2022/04/15 07:16:18;;;;;;;;;;;;;;;26.52;37.48;94779.44;4857875;29;7178;-60
2022/04/15 07:18:44;;;;;;;;;;;;;;;26.46;37.53;94773.19;4855714;29;9117;-60
2022/04/15 07:21:23;;;;;;;;;;;;;;;26.45;37.72;94774.44;4837932;29;7267;-60
2022/04/15 07:23:51;;;;;;;;;;;;;;;26.46;38.05;94785.00;4898900;29;9098;-60
2022/04/15 07:26:17;;;;;;;;;;;;;;;26.47;38.20;94780.22;4927245;28;9369;-60
2022/04/15 07:28:54;;;;;;;;;;;;;;;26.45;38.65;94780.72;4991339;28;9129;-60
2022/04/15 07:31:34;;;;;;;;;;;;;;;26.44;37.99;94773.72;4985985;28;7241;-60
2022/04/15 07:34:03;;;;;;;;;;;;;;;26.45;38.53;94768.94;4986114;28;7271;-58
2022/04/15 07:39:08;;;;;;;;;;;;;;;26.46;38.73;94770.44;5006922;28;9102;-59
2022/04/15 07:41:40;;;;;;;;;;;;;;;26.43;38.47;94777.72;5041885;28;7522;-59
2022/04/15 07:44:09;;;;;;;;;;;;;;;26.41;38.25;94774.72;5039248;28;7245;-59
2022/04/15 07:46:39;;;;;;;;;;;;;;;26.42;38.21;94775.47;5046422;28;9380;-59
2022/04/15 07:49:06;;;;;;;;;;;;;;;26.44;38.13;94778.47;5050011;28;8831;-59
2022/04/15 07:51:43;;;;;;;;;;;;;;;26.45;38.49;94785.47;5043588;28;7127;-59
2022/04/15 07:54:18;;;;;;;;;;;;;;;26.44;38.05;94784.00;5039068;28;9219;-59
2022/04/15 07:56:45;;;;;;;;;;;;;;;26.41;38.29;94785.75;5045686;28;8215;-59
2022/04/15 07:59:13;;;;;;;;;;;;;;;26.38;38.41;94770.19;5050356;28;9139;-59
2022/04/15 08:01:39;;;;;;;;;;;;;;;26.40;37.96;94780.75;5050508;28;8069;-60
2022/04/15 08:04:05;;;;;;;;;;;;;;;26.37;38.15;94781.75;5039259;28;9192;-59
2022/04/15 08:07:00;;;;;;;;;;;;;;;26.41;37.98;94776.72;5046116;28;7269;-59
2022/04/15 08:09:29;;;;;;;;;;;;;;;26.38;38.95;94780.50;5045939;28;7242;-59
2022/04/15 08:12:09;;;;;;;;;;;;;;;26.42;38.80;94786.50;5041673;28;7526;-59
2022/04/15 08:14:37;;;;;;;;;;;;;;;26.41;39.29;94782.22;5039447;28;7248;-59
2022/04/15 08:17:03;;;;;;;;;;;;;;;26.43;39.13;94780.47;5046310;28;7319;-59
2022/04/15 08:19:31;;;;;;;;;;;;;;;26.44;38.99;94778.47;5037630;28;9137;-60
2022/04/15 08:21:58;;;;;;;;;;;;;;;26.45;39.36;94774.44;5039367;28;7209;-60
2022/04/15 08:24:58;;;;;;;;;;;;;;;26.47;39.30;94777.47;5042794;28;9136;-60
2022/04/15 08:27:32;;;;;;;;;;;;;;;26.48;39.45;94778.97;4990780;28;6980;-59
2022/04/15 08:30:06;;;;;;;;;;;;;;;26.45;39.29;94779.97;4995302;28;6992;-60
2022/04/15 08:32:49;;;;;;;;;;;;;;;26.47;38.68;94783.72;4993547;28;7002;-59
2022/04/15 08:35:29;;;;;;;;;;;;;;;26.49;39.10;94786.00;4990161;28;9090;-59
2022/04/15 08:38:05;;;;;;;;;;;;;;;26.49;39.13;94786.00;4986666;28;8775;-59
2022/04/15 08:40:46;;;;;;;;;;;;;;;26.51;39.57;94789.00;5004620;28;9450;-59
2022/04/15 08:43:20;;;;;;;;;;;;;;;26.49;39.59;94788.75;4990354;28;9248;-59
2022/04/15 08:45:47;;;;;;;;;;;;;;;26.51;39.37;94791.75;5006418;28;7230;-59
2022/04/15 08:48:31;;;;;;;;;;;;;;;26.52;39.43;94794.00;4990907;28;7068;-60
2022/04/15 08:51:09;;;;;;;;;;;;;;;26.53;39.31;94789.97;4982028;28;6984;-59
2022/04/15 08:53:37;;;;;;;;;;;;;;;26.54;39.42;94791.47;4990379;28;9437;-60
2022/04/15 08:56:07;;;;;;;;;;;;;;;26.54;39.59;94787.94;4993783;28;7271;-59
2022/04/15 08:58:51;;;;;;;;;;;;;;;26.56;39.50;94797.22;4993457;28;8645;-59
2022/04/15 09:01:17;;;;;;;;;;;;;;;26.56;39.53;94797.22;4981259;28;8197;-60
2022/04/15 09:03:47;;;;;;;;;;;;;;;26.57;39.71;94795.22;5008540;28;7253;-59
2022/04/15 09:06:28;;;;;;;;;;;;;;;26.56;39.05;94788.19;5048533;28;9171;-60
2022/04/15 09:09:33;;;;;;;;;;;;;;;26.58;39.22;94800.22;5043303;28;9251;-60
2022/04/15 09:12:04;;;;;;;;;;;;;;;26.56;39.45;94800.00;5035531;28;9466;-60
2022/04/15 09:14:29;;;;;;;;;;;;;;;26.57;39.67;94798.00;5035526;28;7238;-60
2022/04/15 09:16:58;;;;;;;;;;;;;;;26.58;39.24;94794.72;5039113;28;9070;-59
2022/04/15 09:19:24;;;;;;;;;;;;;;;26.59;39.39;94801.00;5048829;28;9058;-59
2022/04/15 09:22:27;;;;;;;;;;;;;;;26.61;38.78;94798.47;5038724;28;7050;-60
2022/04/15 09:24:54;;;;;;;;;;;;;;;26.57;39.44;94803.50;4968152;28;7853;-60
2022/04/15 09:27:29;;;;;;;;;;;;;;;26.55;39.22;94797.75;4969399;28;7013;-59
2022/04/15 09:30:08;;;;;;;;;;;;;;;26.56;38.93;94802.00;4972997;28;7461;-60
2022/04/15 09:32:46;;;;;;;;;;;;;;;26.55;39.32;94809.53;4968661;28;7080;-60
2022/04/15 09:35:16;;;;;;;;;;;;;;;26.56;39.11;94810.25;4971928;28;8198;-60
2022/04/15 09:37:44;;;;;;;;;;;;;;;26.58;39.51;94810.50;4990847;28;7266;-60
2022/04/15 09:40:16;;;;;;;;;;;;;;;26.56;39.47;94802.75;4969466;28;8972;-60
2022/04/15 09:42:49;;;;;;;;;;;;;;;26.58;38.88;94805.75;4985980;28;7059;-60
2022/04/15 09:45:25;;;;;;;;;;;;;;;26.60;39.65;94805.25;4978506;28;8787;-59
2022/04/15 09:48:05;;;;;;;;;;;;;;;26.62;40.07;94808.25;4980274;28;7190;-60
2022/04/15 09:50:37;;;;;;;;;;;;;;;26.59;40.38;94803.75;4989613;28;9092;-60
2022/04/15 09:53:24;;;;;;;;;;;;;;;26.58;40.27;94805.75;4987714;28;6994;-60
2022/04/15 09:55:52;;;;;;;;;;;;;;;26.61;41.07;94809.50;4985497;28;8804;-60
2022/04/15 09:58:39;;;;;;;;;;;;;;;26.60;40.14;94802.50;4982151;28;9877;-59
2022/04/15 10:01:08;;;;;;;;;;;;;;;26.60;41.10;94805.25;5044723;28;8725;-60
2022/04/15 10:03:35;;;;;;;;;;;;;;;26.61;40.56;94798.47;5038573;28;6967;-60
2022/04/15 10:06:12;;;;;;;;;;;;;;;26.55;42.21;94795.75;5039765;28;9376;-60
2022/04/15 10:08:40;;;;;;;;;;;;;;;26.54;42.17;94810.03;5033208;28;8947;-60
2022/04/15 10:11:14;;;;;;;;;;;;;;;26.54;41.83;94799.75;5035462;28;9080;-61
2022/04/15 10:13:44;;;;;;;;;;;;;;;26.55;42.24;94800.50;5045331;28;7148;-60
2022/04/15 10:16:13;;;;;;;;;;;;;;;26.57;42.16;94807.03;5037652;28;7413;-60
2022/04/15 10:18:41;;;;;;;;;;;;;;;26.56;42.14;94802.75;5039864;28;9136;-60
2022/04/15 10:21:08;;;;;;;;;;;;;;;26.56;41.11;94797.22;5042482;28;8851;-60
2022/04/15 10:23:35;;;;;;;;;;;;;;;26.58;42.00;94799.47;5053422;28;7107;-60
2022/04/15 10:26:06;;;;;;;;;;;;;;;26.60;41.32;94791.47;5043586;28;7240;-60
2022/04/15 10:28:47;;;;;;;;;;;;;;;26.56;40.70;94796.47;5037256;28;7274;-59
2022/04/15 10:31:46;;;;;;;;;;;;;;;26.61;40.38;94799.22;5035981;28;7278;-60
2022/04/15 10:34:23;;;;;;;;;;;;;;;26.62;40.89;94792.44;5035052;28;7050;-59
2022/04/15 10:36:55;;;;;;;;;;;;;;;26.61;40.85;94793.72;5037904;28;7490;-60
2022/04/15 10:39:48;;;;;;;;;;;;;;;26.61;40.77;94795.72;5040066;28;8864;-60
2022/04/15 10:42:43;;;;;;;;;;;;;;;26.58;40.92;94793.94;5046551;28;9399;-61
2022/04/15 10:45:34;;;;;;;;;;;;;;;26.61;40.22;94798.47;5040178;28;8529;-60
2022/04/15 10:48:04;;;;;;;;;;;;;;;26.63;40.83;94791.19;5035968;28;9143;-60
2022/04/15 10:50:41;;;;;;;;;;;;;;;26.64;40.97;94786.44;5047830;28;8936;-61
2022/04/15 10:53:46;;;;;;;;;;;;;;;26.65;40.82;94793.44;5043112;28;8759;-59
2022/04/15 10:56:14;;;;;;;;;;;;;;;26.63;40.54;94802.22;5040286;28;7669;-60
2022/04/15 11:02:55;;;;;;;;;;;;;;;26.67;40.23;94796.44;4968641;28;9174;-60
2022/04/15 11:05:44;;;;;;;;;;;;;;;26.67;40.63;94790.91;4952434;28;9108;-60
2022/04/15 11:08:45;;;;;;;;;;;;;;;26.68;40.56;94795.19;4982385;28;9150;-60
2022/04/15 11:11:51;;;;;;;;;;;;;;;26.70;40.50;94789.91;4956721;28;7096;-60
2022/04/15 11:14:33;;;;;;;;;;;;;;;26.68;40.38;94798.69;4965684;28;7258;-60
2022/04/15 11:16:59;;;;;;;;;;;;;;;26.68;40.04;94792.41;4971603;28;9162;-60
2022/04/15 11:19:29;;;;;;;;;;;;;;;26.70;39.80;94787.91;4973977;28;7401;-61
2022/04/15 11:22:04;;;;;;;;;;;;;;;26.70;40.09;94787.16;4971490;28;7409;-59
2022/04/15 11:24:44;;;;;;;;;;;;;;;26.74;39.50;94787.66;4974690;28;7894;-60
2022/04/15 11:28:03;;;;;;;;;;;;;;;26.75;39.83;94786.41;4959309;28;7236;-60
2022/04/15 11:30:38;;;;;;;;;;;;;;;26.76;39.90;94780.38;4894859;29;7274;-60
2022/04/15 11:33:17;;;;;;;;;;;;;;;26.73;40.15;94781.38;4900294;29;9211;-60
2022/04/15 11:35:44;;;;;;;;;;;;;;;26.75;39.93;94783.66;4943805;28;8793;-60
2022/04/15 11:38:50;;;;;;;;;;;;;;;26.73;40.62;94784.13;4987908;28;7544;-59
2022/04/15 11:41:27;;;;;;;;;;;;;;;26.71;40.06;94780.34;4975544;28;7279;-60
2022/04/15 11:44:05;;;;;;;;;;;;;;;26.69;40.45;94786.38;4975331;28;7024;-61
2022/04/15 11:46:48;;;;;;;;;;;;;;;26.71;40.37;94781.09;4970299;28;7340;-60
2022/04/15 11:49:20;;;;;;;;;;;;;;;26.73;39.49;94783.41;4959803;28;9094;-61
2022/04/15 11:51:50;;;;;;;;;;;;;;;26.72;39.53;94781.88;4963068;28;7405;-60
2022/04/15 11:54:44;;;;;;;;;;;;;;;26.74;39.47;94779.38;4989552;28;8819;-60
2022/04/15 11:57:11;;;;;;;;;;;;;;;26.72;39.48;94777.09;4974837;28;9386;-60
2022/04/15 12:00:11;;;;;;;;;;;;;;;26.78;40.13;94775.09;4970779;28;7578;-60
2022/04/15 12:03:11;;;;;;;;;;;;;;;26.77;39.64;94779.09;4949507;28;9423;-60
2022/04/15 12:05:50;;;;;;;;;;;;;;;26.78;40.04;94777.09;4928713;28;7199;-59
2022/04/15 12:08:25;;;;;;;;;;;;;;;26.80;40.41;94780.09;4967650;28;6889;-59
2022/04/15 12:11:01;;;;;;;;;;;;;;;26.80;40.13;94772.56;4966527;28;9089;-60
2022/04/15 12:13:41;;;;;;;;;;;;;;;26.79;40.22;94771.09;4954343;28;7189;-59
2022/04/15 12:16:07;;;;;;;;;;;;;;;26.81;39.95;94778.84;4953364;28;7221;-59
2022/04/15 12:18:35;;;;;;;;;;;;;;;26.86;40.13;94786.34;4953542;28;7136;-59
2022/04/15 12:21:01;;;;;;;;;;;;;;;26.88;40.04;94783.84;4950613;28;9590;-59
2022/04/15 12:23:58;;;;;;;;;;;;;;;26.90;39.40;94775.78;4953786;28;7247;-59
2022/04/15 12:26:55;;;;;;;;;;;;;;;26.86;40.02;94780.84;4968327;28;8105;-59
2022/04/15 12:29:48;;;;;;;;;;;;;;;26.83;39.38;94776.31;4947809;28;9085;-60
2022/04/15 12:32:34;;;;;;;;;;;;;;;26.85;39.63;94773.81;4965192;28;8515;-60
2022/04/15 12:35:00;;;;;;;;;;;;;;;26.80;39.93;94780.84;4950990;28;8029;-59
2022/04/15 12:37:50;;;;;;;;;;;;;;;26.81;39.75;94768.56;4972537;28;9432;-60
2022/04/15 12:40:19;;;;;;;;;;;;;;;26.79;39.85;94770.31;5006785;28;7730;-59
2022/04/15 12:42:48;;;;;;;;;;;;;;;26.78;39.84;94779.84;5038888;28;7054;-59
2022/04/15 12:45:23;;;;;;;;;;;;;;;26.78;40.46;94771.56;5047264;28;9588;-60
2022/04/15 12:48:17;;;;;;;;;;;;;;;26.82;40.64;94770.03;5045471;28;7276;-59
2022/04/15 12:51:01;;;;;;;;;;;;;;;26.85;40.22;94768.28;5038151;28;7249;-59
2022/04/15 12:54:03;;;;;;;;;;;;;;;26.87;39.90;94763.00;5046566;28;7161;-59
2022/04/15 12:56:37;;;;;;;;;;;;;;;26.86;40.04;94759.47;5040379;28;7342;-60
2022/04/15 12:59:08;;;;;;;;;;;;;;;26.85;39.74;94760.00;5060225;28;9466;-59
2022/04/15 13:01:34;;;;;;;;;;;;;;;26.86;40.98;94753.22;5043457;28;9489;-59
2022/04/15 13:04:02;;;;;;;;;;;;;;;26.87;40.23;94757.47;5038553;28;7590;-59
2022/04/15 13:06:35;;;;;;;;;;;;;;;26.88;40.58;94745.19;5034949;28;7026;-59
2022/04/15 13:09:06;;;;;;;;;;;;;;;26.91;39.82;94752.44;5038945;28;9062;-59
2022/04/15 13:11:44;;;;;;;;;;;;;;;26.93;40.08;94749.91;5043028;28;9353;-60
2022/04/15 13:14:17;;;;;;;;;;;;;;;26.95;40.20;94746.66;5044179;28;8743;-59
2022/04/15 13:16:43;;;;;;;;;;;;;;;26.97;39.83;94736.59;5037660;28;7275;-59
2022/04/15 13:19:09;;;;;;;;;;;;;;;26.98;39.08;94742.84;5048931;28;6993;-60
2022/04/15 13:21:56;;;;;;;;;;;;;;;26.98;39.26;94743.63;5036071;28;8253;-60
2022/04/15 13:24:34;;;;;;;;;;;;;;;26.98;40.05;94743.63;5035776;28;8551;-59
2022/04/15 13:27:11;;;;;;;;;;;;;;;27.01;40.03;94748.13;5042734;28;7680;-59
2022/04/15 13:29:39;;;;;;;;;;;;;;;27.01;39.79;94745.38;5039388;28;9088;-60
2022/04/15 13:32:15;;;;;;;;;;;;;;;27.02;39.71;94743.31;5040411;28;7316;-59
2022/04/15 13:34:43;;;;;;;;;;;;;;;27.04;38.98;94735.28;5039970;28;8264;-59
2022/04/15 13:37:17;;;;;;;;;;;;;;;27.05;39.35;94737.56;5054852;28;7280;-59
2022/04/15 13:39:57;;;;;;;;;;;;;;;27.04;39.20;94736.03;5037380;28;7085;-59
2022/04/15 13:42:43;;;;;;;;;;;;;;;27.09;39.14;94743.53;5046151;28;7269;-60
2022/04/15 13:45:13;;;;;;;;;;;;;;;27.08;38.91;94742.03;5039304;28;8803;-59
2022/04/15 13:47:41;;;;;;;;;;;;;;;27.08;39.26;94736.50;5041227;28;7040;-59
2022/04/15 13:50:18;;;;;;;;;;;;;;;27.10;39.00;94739.50;5050365;28;7393;-59
2022/04/15 13:58:48;;;;;;;;;;;;;;;27.09;38.48;94732.50;5041035;28;8791;-60
2022/04/15 14:01:27;;;;;;;;;;;;;;;27.14;38.60;94728.97;5057770;28;9340;-59
2022/04/15 14:03:56;;;;;;;;;;;;;;;27.14;38.35;94723.44;5042213;28;8719;-59